Time;durP1;ratioP1;P1;durP2;ratioP2;P2;SDS_P1;SDS_P2;PMS_P1;PMS_P2;Temp;Humidity;BMP_temperature;BMP_pressure;BME280_temperature;BME280_humidity;BME280_pressure;Samples;Min_cycle;Max_cycle;Signal;HPM_P1;HPM_P2
2023/05/03 00:01:28;;;;;;;39.53;24.40;;;10.50;99.90;;;;;;5073296;28;20024;-78
2023/05/03 00:03:54;;;;;;;37.60;21.65;;;10.50;99.90;;;;;;5072068;28;20021;-77
2023/05/03 00:06:20;;;;;;;27.80;19.38;;;10.50;99.90;;;;;;5071770;28;20024;-78
2023/05/03 00:08:47;;;;;;;33.55;20.10;;;10.60;99.90;;;;;;5071854;28;20033;-78
2023/05/03 00:11:12;;;;;;;23.35;16.77;;;10.60;99.90;;;;;;5071761;28;20107;-78
2023/05/03 00:13:38;;;;;;;20.73;15.35;;;10.60;99.90;;;;;;5073344;28;20048;-77
2023/05/03 00:16:04;;;;;;;21.77;15.38;;;10.50;99.90;;;;;;5071597;28;20021;-78
2023/05/03 00:18:30;;;;;;;20.20;14.27;;;10.50;99.90;;;;;;5072313;28;20047;-77
2023/05/03 00:20:58;;;;;;;19.67;14.63;;;10.50;99.90;;;;;;5072590;28;20092;-78
2023/05/03 00:23:24;;;;;;;24.73;15.90;;;10.50;99.90;;;;;;5073200;28;20024;-77
2023/05/03 00:25:53;;;;;;;23.75;15.38;;;10.50;99.90;;;;;;5071999;28;20047;-77
2023/05/03 00:28:19;;;;;;;20.73;15.07;;;10.50;99.90;;;;;;5073042;28;20103;-78
2023/05/03 00:30:45;;;;;;;26.55;17.10;;;10.50;99.90;;;;;;5071515;28;20447;-77
2023/05/03 00:33:10;;;;;;;23.75;15.70;;;10.50;99.90;;;;;;5072606;28;20378;-78
2023/05/03 00:35:36;;;;;;;18.52;14.30;;;10.50;99.90;;;;;;5072850;28;20025;-78
2023/05/03 00:38:02;;;;;;;20.00;14.43;;;10.50;99.90;;;;;;5071720;28;20035;-78
2023/05/03 00:40:27;;;;;;;20.85;15.00;;;10.40;99.90;;;;;;5071420;28;20025;-77
2023/05/03 00:42:53;;;;;;;22.23;15.80;;;10.40;99.90;;;;;;5072984;28;20021;-77
2023/05/03 00:45:18;;;;;;;22.63;16.33;;;10.30;99.90;;;;;;5072651;28;20029;-77
2023/05/03 00:47:44;;;;;;;25.23;17.48;;;10.30;99.90;;;;;;5071598;28;20123;-77
2023/05/03 00:50:10;;;;;;;24.40;17.65;;;10.30;99.90;;;;;;5072676;28;20024;-77
2023/05/03 00:52:37;;;;;;;24.90;17.80;;;10.30;99.90;;;;;;5072881;28;20057;-77
2023/05/03 00:55:03;;;;;;;22.60;15.20;;;10.20;99.90;;;;;;5072587;28;20044;-77
2023/05/03 00:57:29;;;;;;;23.67;16.23;;;10.20;99.90;;;;;;5071462;28;20107;-77
2023/05/03 00:59:58;;;;;;;24.77;16.70;;;10.10;99.90;;;;;;5071617;28;20047;-77
2023/05/03 01:02:24;;;;;;;22.23;16.48;;;10.10;99.90;;;;;;5072004;28;20017;-77
2023/05/03 01:04:51;;;;;;;20.75;15.80;;;10.00;99.90;;;;;;5072923;28;20445;-77
2023/05/03 01:08:01;;;;;;;21.17;15.18;;;10.10;99.90;;;;;;5072253;28;20359;-77
2023/05/03 01:10:38;;;;;;;20.20;15.02;;;10.10;99.90;;;;;;5072629;28;20142;-78
2023/05/03 01:13:07;;;;;;;20.00;14.38;;;10.10;99.90;;;;;;5072777;28;20037;-78
2023/05/03 01:15:45;;;;;;;23.90;16.65;;;10.10;99.90;;;;;;5071071;28;20094;-77
2023/05/03 01:18:20;;;;;;;20.90;14.02;;;10.20;99.90;;;;;;5071488;28;20033;-77
2023/05/03 01:20:48;;;;;;;21.00;15.93;;;10.20;99.90;;;;;;5072291;28;20477;-77
2023/05/03 01:23:39;;;;;;;25.33;16.27;;;10.20;99.90;;;;;;5071296;28;20032;-78
2023/05/03 01:26:21;;;;;;;20.35;15.07;;;10.20;99.90;;;;;;5072240;28;20043;-77
2023/05/03 01:28:47;;;;;;;22.77;16.88;;;10.20;99.90;;;;;;5071109;28;20068;-78
2023/05/03 01:31:21;;;;;;;24.70;16.25;;;10.30;99.90;;;;;;5070938;28;20090;-77
2023/05/03 01:34:05;;;;;;;26.38;18.75;;;10.30;99.90;;;;;;5071189;28;20055;-77
2023/05/03 01:36:34;;;;;;;28.27;19.45;;;10.30;99.90;;;;;;5072236;28;20031;-77
2023/05/03 01:39:16;;;;;;;28.50;20.00;;;10.30;99.90;;;;;;5075232;28;20017;-77
2023/05/03 01:41:43;;;;;;;29.10;20.48;;;10.30;99.90;;;;;;5074458;28;20021;-78
2023/05/03 01:44:10;;;;;;;31.50;20.60;;;10.30;99.90;;;;;;5075973;28;20029;-77
2023/05/03 01:46:45;;;;;;;29.05;20.55;;;10.30;99.90;;;;;;5075723;28;20025;-77
2023/05/03 01:49:11;;;;;;;25.83;19.00;;;10.20;99.90;;;;;;5075990;28;20498;-78
2023/05/03 01:51:36;;;;;;;25.42;19.40;;;10.20;99.90;;;;;;5075392;28;20021;-77
2023/05/03 01:54:02;;;;;;;25.13;19.30;;;10.30;99.90;;;;;;5075776;28;20463;-78
2023/05/03 01:56:30;;;;;;;28.42;18.40;;;10.20;99.90;;;;;;5074163;28;20035;-77
2023/05/03 01:58:56;;;;;;;26.05;17.23;;;10.20;99.90;;;;;;5074463;28;20428;-77
2023/05/03 02:01:21;;;;;;;25.60;17.55;;;10.20;99.90;;;;;;5075332;28;20021;-77
2023/05/03 02:03:47;;;;;;;25.77;17.95;;;10.20;99.90;;;;;;5075600;28;20021;-78
2023/05/03 02:06:12;;;;;;;25.52;16.90;;;10.20;99.90;;;;;;5075279;28;20016;-78
2023/05/03 02:08:38;;;;;;;26.05;17.40;;;10.30;99.90;;;;;;5074139;28;20115;-77
2023/05/03 02:11:03;;;;;;;33.53;21.83;;;10.30;99.90;;;;;;5073846;28;20044;-78
2023/05/03 02:13:29;;;;;;;34.40;23.92;;;10.30;99.90;;;;;;5075115;28;20136;-77
2023/05/03 02:15:55;;;;;;;33.55;23.92;;;10.30;99.90;;;;;;5075198;28;20020;-78
2023/05/03 02:18:21;;;;;;;33.00;23.67;;;10.30;99.90;;;;;;5075412;28;20044;-77
2023/05/03 02:20:47;;;;;;;31.48;21.88;;;10.30;99.90;;;;;;5075047;28;20021;-77
2023/05/03 02:23:13;;;;;;;29.80;20.63;;;10.30;99.90;;;;;;5075462;28;20028;-78
2023/05/03 02:25:39;;;;;;;29.58;20.40;;;10.30;99.90;;;;;;5073688;28;20020;-78
2023/05/03 02:28:05;;;;;;;25.85;18.75;;;10.30;99.90;;;;;;5075053;28;20028;-78
2023/05/03 02:30:32;;;;;;;29.23;18.65;;;10.30;99.90;;;;;;5073621;28;20078;-78
2023/05/03 02:32:58;;;;;;;25.38;18.30;;;10.20;99.90;;;;;;5073258;28;20062;-77
2023/05/03 02:35:23;;;;;;;24.10;17.85;;;10.20;99.90;;;;;;5074831;28;20466;-77
2023/05/03 02:37:50;;;;;;;26.70;17.13;;;10.20;99.90;;;;;;5074726;28;20490;-77
2023/05/03 02:40:15;;;;;;;23.35;16.35;;;10.20;99.90;;;;;;5073685;28;20021;-78
2023/05/03 02:42:41;;;;;;;24.27;18.45;;;10.20;99.90;;;;;;5073063;28;20375;-77
2023/05/03 02:45:07;;;;;;;27.10;18.27;;;10.10;99.90;;;;;;5074614;28;20032;-77
2023/05/03 02:47:33;;;;;;;25.98;18.38;;;10.20;99.90;;;;;;5073358;28;20036;-78
2023/05/03 02:49:58;;;;;;;27.98;19.05;;;10.20;99.90;;;;;;5072443;28;20031;-77
2023/05/03 02:52:24;;;;;;;28.35;18.10;;;10.20;99.90;;;;;;5073028;28;20017;-77
2023/05/03 02:54:49;;;;;;;21.98;17.17;;;10.20;99.90;;;;;;5074714;28;20033;-77
2023/05/03 02:57:15;;;;;;;23.65;18.40;;;10.20;99.90;;;;;;5073076;28;20033;-77
2023/05/03 02:59:40;;;;;;;28.83;20.77;;;10.20;99.90;;;;;;5074547;28;20416;-77
2023/05/03 03:02:06;;;;;;;25.95;18.60;;;10.20;99.90;;;;;;5074152;28;20104;-77
2023/05/03 03:04:32;;;;;;;25.30;17.98;;;10.30;99.90;;;;;;5072884;28;20025;-77
2023/05/03 03:06:57;;;;;;;30.02;18.05;;;10.30;99.90;;;;;;5073958;28;20429;-77
2023/05/03 03:09:23;;;;;;;29.15;19.15;;;10.30;99.90;;;;;;5073159;28;20021;-77
2023/05/03 03:11:51;;;;;;;24.75;17.35;;;10.30;99.90;;;;;;5074022;28;20021;-77
2023/05/03 03:14:16;;;;;;;26.25;18.33;;;10.30;99.90;;;;;;5073045;28;20109;-77
2023/05/03 03:16:44;;;;;;;32.00;20.90;;;10.30;99.90;;;;;;5072608;28;20115;-77
2023/05/03 03:19:09;;;;;;;31.83;21.65;;;10.20;99.90;;;;;;5074057;28;20078;-77
2023/05/03 03:21:35;;;;;;;35.08;21.33;;;10.30;99.90;;;;;;5072444;28;20020;-77
2023/05/03 03:24:04;;;;;;;29.85;20.83;;;10.20;99.90;;;;;;5072873;28;20028;-78
2023/05/03 03:26:29;;;;;;;30.45;20.42;;;10.30;99.90;;;;;;5073726;28;20073;-77
2023/05/03 03:28:55;;;;;;;28.13;19.77;;;10.20;99.90;;;;;;5072575;28;20478;-77
2023/05/03 03:31:24;;;;;;;35.72;23.63;;;10.20;99.90;;;;;;5073579;28;20044;-77
2023/05/03 03:33:50;;;;;;;35.35;22.48;;;10.20;99.90;;;;;;5072553;28;20109;-77
2023/05/03 03:36:16;;;;;;;36.42;22.25;;;10.30;99.90;;;;;;5072404;28;20021;-78
2023/05/03 03:38:41;;;;;;;44.47;24.80;;;10.30;99.90;;;;;;5073810;28;20036;-78
2023/05/03 03:41:07;;;;;;;44.67;25.73;;;10.30;99.90;;;;;;5072362;28;20492;-77
2023/05/03 03:43:33;;;;;;;49.33;28.63;;;10.30;99.90;;;;;;5073756;28;20158;-78
2023/05/03 03:45:58;;;;;;;43.90;27.35;;;10.20;99.90;;;;;;5072115;28;20078;-77
2023/05/03 03:48:24;;;;;;;38.53;24.10;;;10.30;99.90;;;;;;5073616;28;20039;-77
2023/05/03 03:50:50;;;;;;;39.47;23.50;;;10.30;99.90;;;;;;5071959;28;20024;-78
2023/05/03 03:53:16;;;;;;;34.83;23.20;;;10.30;99.90;;;;;;5073652;28;20024;-77
2023/05/03 03:55:41;;;;;;;36.25;22.48;;;10.30;99.90;;;;;;5072153;28;20453;-77
2023/05/03 03:58:07;;;;;;;37.65;22.50;;;10.30;99.90;;;;;;5072101;28;20510;-77
2023/05/03 04:00:34;;;;;;;37.80;23.77;;;10.30;99.90;;;;;;5072896;28;20020;-77
2023/05/03 04:03:00;;;;;;;35.22;22.15;;;10.30;99.90;;;;;;5072246;28;20029;-78
2023/05/03 04:05:26;;;;;;;36.47;22.92;;;10.30;99.90;;;;;;5073272;28;20047;-77
2023/05/03 04:07:51;;;;;;;25.52;17.23;;;10.20;99.90;;;;;;5073191;28;20036;-77
2023/05/03 04:10:17;;;;;;;27.98;18.52;;;10.10;99.90;;;;;;5071789;28;20016;-77
2023/05/03 04:12:43;;;;;;;30.08;19.00;;;10.10;99.90;;;;;;5072505;28;20025;-77
2023/05/03 04:15:10;;;;;;;28.52;16.83;;;10.00;99.90;;;;;;5071806;28;20027;-77
2023/05/03 04:17:36;;;;;;;24.75;15.43;;;10.00;99.90;;;;;;5071915;28;20020;-78
2023/05/03 04:20:09;;;;;;;19.05;13.05;;;9.90;99.90;;;;;;5073132;28;20025;-77
2023/05/03 04:22:38;;;;;;;18.02;13.60;;;9.90;99.90;;;;;;5071452;28;20017;-78
2023/05/03 04:25:05;;;;;;;18.80;11.88;;;9.80;99.90;;;;;;5071712;28;20024;-78
2023/05/03 04:27:32;;;;;;;18.65;11.57;;;9.80;99.90;;;;;;5071550;28;20150;-78
2023/05/03 04:29:58;;;;;;;17.58;12.52;;;9.80;99.90;;;;;;5073077;28;20017;-78
2023/05/03 04:32:24;;;;;;;16.42;12.07;;;9.70;99.90;;;;;;5072626;28;20017;-77
2023/05/03 04:34:51;;;;;;;16.40;11.73;;;9.80;99.90;;;;;;5073124;28;20631;-77
2023/05/03 04:37:18;;;;;;;15.23;10.70;;;9.70;99.90;;;;;;5071542;28;20017;-77
2023/05/03 04:39:44;;;;;;;19.83;12.18;;;9.80;99.90;;;;;;5072991;28;20450;-78
2023/05/03 04:42:14;;;;;;;16.58;11.65;;;9.70;99.90;;;;;;5071784;28;20025;-78
2023/05/03 04:44:40;;;;;;;16.05;11.50;;;9.70;99.90;;;;;;5071865;28;20048;-77
2023/05/03 04:47:06;;;;;;;16.48;11.90;;;9.70;99.90;;;;;;5072833;28;20029;-77
2023/05/03 04:49:33;;;;;;;13.98;10.15;;;9.70;99.90;;;;;;5072659;28;20501;-78
2023/05/03 04:51:59;;;;;;;16.25;10.98;;;9.70;99.90;;;;;;5071101;28;20067;-78
2023/05/03 04:54:24;;;;;;;17.48;11.18;;;9.70;99.90;;;;;;5071677;28;20033;-78
2023/05/03 04:56:50;;;;;;;15.95;10.25;;;9.70;99.90;;;;;;5072434;28;20032;-77
2023/05/03 04:59:16;;;;;;;15.30;10.80;;;9.70;99.90;;;;;;5072570;28;20478;-77
2023/05/03 05:01:41;;;;;;;13.98;11.00;;;9.70;99.90;;;;;;5071302;28;20063;-78
2023/05/03 05:04:07;;;;;;;14.73;11.35;;;9.70;99.90;;;;;;5071304;28;20021;-78
2023/05/03 05:06:33;;;;;;;15.57;11.48;;;9.70;99.90;;;;;;5072090;28;20032;-77
2023/05/03 05:08:59;;;;;;;17.45;11.05;;;9.70;99.90;;;;;;5072313;28;20036;-78
2023/05/03 05:11:24;;;;;;;16.60;11.70;;;9.70;99.90;;;;;;5072489;28;20017;-77
2023/05/03 05:13:50;;;;;;;17.05;11.82;;;9.80;99.90;;;;;;5074075;28;20389;-77
2023/05/03 05:16:16;;;;;;;16.35;10.23;;;9.80;99.90;;;;;;5076200;28;20398;-78
2023/05/03 05:18:42;;;;;;;16.17;10.70;;;9.80;99.90;;;;;;5075022;28;20059;-77
2023/05/03 05:21:07;;;;;;;16.30;11.10;;;9.90;99.90;;;;;;5076123;28;20462;-77
2023/05/03 05:23:33;;;;;;;14.77;9.75;;;9.90;99.90;;;;;;5076407;28;20035;-77
2023/05/03 05:25:59;;;;;;;13.20;10.57;;;10.00;99.90;;;;;;5075900;28;20497;-76
2023/05/03 05:28:26;;;;;;;15.43;9.13;;;10.10;99.90;;;;;;5075899;28;20119;-77
2023/05/03 05:30:52;;;;;;;15.10;11.10;;;10.10;99.90;;;;;;5074224;28;20027;-78
2023/05/03 05:33:18;;;;;;;12.32;9.40;;;10.20;99.90;;;;;;5074616;28;20405;-77
2023/05/03 05:35:45;;;;;;;15.93;10.25;;;10.20;99.90;;;;;;5075798;28;20105;-78
2023/05/03 05:38:11;;;;;;;17.10;10.93;;;10.20;99.90;;;;;;5074802;28;20094;-77
2023/05/03 05:40:37;;;;;;;16.10;11.05;;;10.20;99.90;;;;;;5074822;28;20461;-76
2023/05/03 05:43:03;;;;;;;14.43;10.02;;;10.30;99.90;;;;;;5075898;28;20020;-78
2023/05/03 05:45:29;;;;;;;16.83;11.10;;;10.20;99.90;;;;;;5073948;28;20047;-78
2023/05/03 05:47:55;;;;;;;14.85;10.80;;;10.20;99.90;;;;;;5075340;28;20074;-77
2023/05/03 05:50:21;;;;;;;18.92;11.07;;;10.30;99.90;;;;;;5075122;28;20024;-77
2023/05/03 05:52:49;;;;;;;18.77;12.45;;;10.30;99.90;;;;;;5075296;28;20017;-78
2023/05/03 05:55:15;;;;;;;19.67;11.23;;;10.40;99.90;;;;;;5075074;28;20047;-78
2023/05/03 05:57:41;;;;;;;15.50;12.02;;;10.40;99.90;;;;;;5075292;28;20052;-77
2023/05/03 06:00:13;;;;;;;22.60;14.00;;;10.40;99.90;;;;;;5075117;28;20078;-78
2023/05/03 06:02:39;;;;;;;18.67;12.07;;;10.30;99.90;;;;;;5075750;28;20024;-77
2023/05/03 06:05:05;;;;;;;23.80;14.45;;;10.30;99.90;;;;;;5075377;28;20052;-77
2023/05/03 06:07:31;;;;;;;20.63;14.90;;;10.30;99.90;;;;;;5075470;28;20064;-77
2023/05/03 06:09:56;;;;;;;24.35;16.42;;;10.20;99.90;;;;;;5074324;28;20021;-77
2023/05/03 06:12:22;;;;;;;19.70;15.10;;;10.20;99.90;;;;;;5075118;28;20033;-77
2023/05/03 06:14:47;;;;;;;19.40;15.10;;;10.20;99.90;;;;;;5074017;28;20029;-77
2023/05/03 06:17:13;;;;;;;23.83;16.65;;;10.20;99.90;;;;;;5074503;28;20539;-77
2023/05/03 06:19:39;;;;;;;26.10;16.88;;;10.30;99.90;;;;;;5075276;28;20028;-77
2023/05/03 06:22:05;;;;;;;22.98;16.95;;;10.30;99.90;;;;;;5074632;28;20386;-77
2023/05/03 06:24:31;;;;;;;24.50;17.52;;;10.40;99.90;;;;;;5074663;28;20028;-77
2023/05/03 06:26:57;;;;;;;21.95;16.13;;;10.40;99.90;;;;;;5073232;28;20020;-78
2023/05/03 06:29:23;;;;;;;23.17;15.35;;;10.40;99.90;;;;;;5073458;28;20036;-78
2023/05/03 06:31:49;;;;;;;22.25;16.98;;;10.50;99.90;;;;;;5074228;28;20074;-78
2023/05/03 06:34:21;;;;;;;25.52;15.70;;;10.50;99.90;;;;;;5073118;28;20123;-78
2023/05/03 06:36:48;;;;;;;21.17;14.05;;;10.50;99.90;;;;;;5072816;28;20017;-78
2023/05/03 06:39:13;;;;;;;22.70;15.85;;;10.50;99.90;;;;;;5074409;28;20477;-78
2023/05/03 06:41:39;;;;;;;22.15;14.57;;;10.50;99.90;;;;;;5072864;28;20032;-78
2023/05/03 06:44:06;;;;;;;18.85;13.52;;;10.50;99.90;;;;;;5074305;28;20028;-77
2023/05/03 06:46:31;;;;;;;17.70;12.93;;;10.50;99.90;;;;;;5074050;28;20028;-77
2023/05/03 06:48:57;;;;;;;17.00;12.38;;;10.50;99.90;;;;;;5073969;28;20158;-78
2023/05/03 06:51:27;;;;;;;15.20;11.45;;;10.60;99.90;;;;;;5074453;28;20016;-78
2023/05/03 06:53:57;;;;;;;18.17;12.02;;;10.40;99.90;;;;;;5074355;28;20027;-77
2023/05/03 06:56:23;;;;;;;18.02;12.32;;;10.30;99.90;;;;;;5071990;28;20166;-77
2023/05/03 06:58:48;;;;;;;18.33;11.80;;;10.30;99.90;;;;;;5072028;28;20025;-77
2023/05/03 07:01:16;;;;;;;18.70;11.25;;;10.40;99.90;;;;;;5073903;28;20371;-77
2023/05/03 07:03:41;;;;;;;28.80;15.93;;;10.50;99.90;;;;;;5074349;28;20032;-77
2023/05/03 07:06:07;;;;;;;34.42;20.13;;;10.50;99.90;;;;;;5073976;28;20025;-78
2023/05/03 07:08:33;;;;;;;20.45;13.25;;;10.60;99.90;;;;;;5072987;28;20056;-78
2023/05/03 07:10:58;;;;;;;20.65;13.38;;;10.50;99.90;;;;;;5071735;28;20482;-77
2023/05/03 07:13:24;;;;;;;21.65;13.48;;;10.50;99.90;;;;;;5072780;28;20106;-77
2023/05/03 07:15:49;;;;;;;13.75;10.15;;;10.50;99.90;;;;;;5070907;28;20031;-78
2023/05/03 07:18:15;;;;;;;19.85;12.32;;;10.50;99.90;;;;;;5071275;28;20012;-78
2023/05/03 07:20:41;;;;;;;16.98;10.50;;;10.50;99.90;;;;;;5070809;28;20501;-77
2023/05/03 07:23:06;;;;;;;13.43;9.48;;;10.60;99.90;;;;;;5071893;28;20016;-77
2023/05/03 07:25:32;;;;;;;21.25;10.65;;;10.70;99.90;;;;;;5069679;28;20016;-77
2023/05/03 07:27:58;;;;;;;17.08;11.20;;;10.70;99.90;;;;;;5072053;28;20090;-77
2023/05/03 07:30:24;;;;;;;15.57;11.07;;;10.90;99.90;;;;;;5070936;28;20012;-77
2023/05/03 07:32:49;;;;;;;10.63;7.13;;;10.90;99.90;;;;;;5072365;28;20086;-77
2023/05/03 07:35:15;;;;;;;10.27;7.35;;;10.90;99.90;;;;;;5071628;28;20036;-77
2023/05/03 07:37:42;;;;;;;11.15;8.50;;;11.00;99.90;;;;;;5070728;28;20032;-78
2023/05/03 07:40:11;;;;;;;11.40;7.93;;;10.80;99.90;;;;;;5070234;28;20119;-77
2023/05/03 07:42:37;;;;;;;9.88;7.22;;;10.80;99.90;;;;;;5070106;28;20021;-78
2023/05/03 07:45:02;;;;;;;16.13;8.30;;;10.80;99.90;;;;;;5068830;28;20013;-78
2023/05/03 07:47:28;;;;;;;11.82;7.10;;;10.90;99.90;;;;;;5069972;28;20512;-78
2023/05/03 07:49:54;;;;;;;11.52;7.38;;;11.10;99.90;;;;;;5068840;28;20392;-78
2023/05/03 07:52:20;;;;;;;10.68;7.53;;;11.10;99.90;;;;;;5070039;28;20908;-78
2023/05/03 07:54:45;;;;;;;15.18;9.32;;;11.30;99.90;;;;;;5070845;28;20037;-78
2023/05/03 07:57:13;;;;;;;12.35;9.60;;;11.50;99.90;;;;;;5068257;28;20025;-78
2023/05/03 07:59:38;;;;;;;12.88;7.28;;;11.70;99.90;;;;;;5069723;28;20029;-79
2023/05/03 08:02:04;;;;;;;9.23;7.03;;;11.70;99.90;;;;;;5071994;28;20056;-78
2023/05/03 08:04:30;;;;;;;11.38;7.90;;;11.70;99.90;;;;;;5071098;28;20020;-78
2023/05/03 08:06:58;;;;;;;9.98;7.00;;;11.80;99.90;;;;;;5069914;28;20033;-79
2023/05/03 08:09:24;;;;;;;11.18;5.47;;;11.70;98.00;;;;;;5072046;28;20033;-78
2023/05/03 08:11:50;;;;;;;11.45;6.32;;;11.80;99.70;;;;;;5069804;28;20048;-78
2023/05/03 08:14:16;;;;;;;10.23;6.18;;;11.70;99.90;;;;;;5069673;28;20016;-78
2023/05/03 08:16:41;;;;;;;11.15;6.65;;;11.80;99.90;;;;;;5052257;28;20390;-78
2023/05/03 08:19:07;;;;;;;9.63;5.60;;;11.80;99.70;;;;;;5065683;28;20091;-78
2023/05/03 08:21:34;;;;;;;9.77;4.80;;;11.80;99.90;;;;;;5069999;28;20111;-78
2023/05/03 08:24:01;;;;;;;9.10;5.53;;;11.80;95.90;;;;;;5069366;28;20020;-77
2023/05/03 08:26:28;;;;;;;10.55;4.78;;;11.80;90.80;;;;;;5070993;28;20031;-79
2023/05/03 08:28:54;;;;;;;8.98;5.40;;;11.90;86.60;;;;;;5070382;28;20033;-78
2023/05/03 08:31:19;;;;;;;8.52;5.50;;;12.10;87.70;;;;;;5071020;28;20585;-79
2023/05/03 08:33:45;;;;;;;5.93;4.75;;;12.10;86.20;;;;;;5068796;28;20119;-79
2023/05/03 08:36:11;;;;;;;8.88;4.05;;;12.20;85.60;;;;;;5070635;28;20017;-80
2023/05/03 08:38:40;;;;;;;9.73;4.70;;;12.20;80.40;;;;;;5070361;28;20032;-79
2023/05/03 08:41:24;;;;;;;10.98;5.38;;;12.40;81.40;;;;;;5068632;28;20035;-79
2023/05/03 08:43:53;;;;;;;8.15;5.78;;;12.40;80.00;;;;;;5070927;28;20505;-79
2023/05/03 08:46:18;;;;;;;11.50;6.38;;;12.30;79.60;;;;;;5069907;28;20424;-79
2023/05/03 08:48:47;;;;;;;7.85;4.57;;;12.40;80.10;;;;;;5075705;28;20045;-79
2023/05/03 08:51:13;;;;;;;8.25;4.68;;;12.60;80.70;;;;;;5074476;28;20031;-78
2023/05/03 08:53:39;;;;;;;12.40;5.63;;;12.60;80.10;;;;;;5074343;28;20066;-79
2023/05/03 08:56:09;;;;;;;10.13;5.55;;;12.60;79.40;;;;;;5075560;28;20029;-78
2023/05/03 08:58:36;;;;;;;8.75;5.32;;;12.60;79.40;;;;;;5073421;28;20036;-78
2023/05/03 09:01:06;;;;;;;9.68;5.75;;;12.60;81.10;;;;;;5075876;28;20032;-78
2023/05/03 09:03:35;;;;;;;10.35;5.60;;;12.60;80.90;;;;;;5074575;28;20031;-79
2023/05/03 09:06:02;;;;;;;13.80;5.50;;;12.50;80.60;;;;;;5074593;28;20024;-79
2023/05/03 09:08:29;;;;;;;8.60;5.60;;;12.50;80.40;;;;;;5075245;28;20049;-80
2023/05/03 09:10:55;;;;;;;9.05;4.35;;;12.50;80.40;;;;;;5073949;28;20103;-78
2023/05/03 09:13:28;;;;;;;8.85;6.25;;;12.20;79.60;;;;;;5074664;28;20048;-78
2023/05/03 09:15:55;;;;;;;7.38;4.85;;;12.10;80.10;;;;;;5073128;28;20021;-79
2023/05/03 09:18:22;;;;;;;11.95;6.22;;;11.90;80.60;;;;;;5072067;28;20029;-78
2023/05/03 09:20:52;;;;;;;9.50;5.45;;;12.00;82.20;;;;;;5072222;28;20622;-78
2023/05/03 09:23:38;;;;;;;9.23;4.53;;;11.90;81.40;;;;;;5073369;28;20032;-78
2023/05/03 09:26:05;;;;;;;8.00;5.68;;;11.80;83.10;;;;;;5074641;28;20036;-79
2023/05/03 09:28:40;;;;;;;8.88;5.50;;;11.80;83.60;;;;;;5073634;28;20051;-79
2023/05/03 09:31:06;;;;;;;9.88;5.38;;;11.80;83.50;;;;;;5073893;28;20025;-79
2023/05/03 09:33:32;;;;;;;6.93;5.18;;;11.90;84.90;;;;;;5074716;28;20097;-79
2023/05/03 09:36:03;;;;;;;9.15;5.20;;;12.10;85.60;;;;;;5074070;28;20107;-79
2023/05/03 09:38:34;;;;;;;11.63;6.18;;;12.00;82.70;;;;;;5074525;28;20040;-80
2023/05/03 09:41:06;;;;;;;9.00;5.53;;;12.10;82.40;;;;;;5073350;28;20377;-79
2023/05/03 09:43:32;;;;;;;7.07;5.20;;;12.00;79.50;;;;;;5073879;28;20033;-80
2023/05/03 09:46:08;;;;;;;8.60;4.93;;;12.10;80.00;;;;;;5073905;28;20027;-80
2023/05/03 09:48:35;;;;;;;7.43;5.88;;;12.10;79.80;;;;;;5073239;28;20045;-79
2023/05/03 09:51:04;;;;;;;9.18;5.63;;;12.10;78.30;;;;;;5073888;28;20500;-79
2023/05/03 09:53:31;;;;;;;8.68;5.55;;;12.10;79.80;;;;;;5073117;28;20040;-79
2023/05/03 09:55:58;;;;;;;9.98;6.35;;;12.00;81.10;;;;;;5089328;28;20359;-79
2023/05/03 09:58:24;;;;;;;14.10;6.57;;;12.10;83.50;;;;;;5079971;28;20498;-79
2023/05/03 10:00:50;;;;;;;9.65;5.93;;;12.20;83.10;;;;;;5074797;28;20521;-79
2023/05/03 10:03:49;;;;;;;15.48;7.93;;;12.30;79.80;;;;;;5073832;28;20037;-79
2023/05/03 10:06:31;;;;;;;17.33;7.18;;;12.20;81.40;;;;;;5085784;28;20046;-79
2023/05/03 10:09:25;;;;;;;11.25;6.35;;;12.10;79.90;;;;;;5093403;28;20052;-79
2023/05/03 10:11:57;;;;;;;12.15;6.47;;;12.30;80.10;;;;;;5085939;28;20124;-79
2023/05/03 10:14:23;;;;;;;8.52;5.60;;;12.30;77.20;;;;;;5073011;28;20040;-78
2023/05/03 10:16:59;;;;;;;11.07;7.07;;;12.20;74.40;;;;;;5073866;28;20128;-79
2023/05/03 10:19:28;;;;;;;8.55;6.07;;;12.20;76.10;;;;;;5069505;28;20474;-79
2023/05/03 10:22:04;;;;;;;15.88;8.00;;;12.20;77.50;;;;;;5071560;28;20066;-79
2023/05/03 10:24:31;;;;;;;17.40;7.20;;;12.30;78.00;;;;;;5072131;28;20111;-79
2023/05/03 10:26:57;;;;;;;12.82;7.80;;;12.30;77.70;;;;;;5074241;28;20028;-79
2023/05/03 10:29:36;;;;;;;12.57;6.15;;;12.30;76.00;;;;;;5072635;28;20045;-79
2023/05/03 10:32:25;;;;;;;12.35;6.97;;;12.40;77.30;;;;;;5073903;28;20489;-80
2023/05/03 10:35:18;;;;;;;8.25;5.97;;;12.60;77.10;;;;;;5052579;28;20048;-79
2023/05/03 10:37:44;;;;;;;9.75;6.28;;;12.50;78.40;;;;;;5071724;28;20029;-79
2023/05/03 10:40:17;;;;;;;11.32;5.72;;;12.70;78.80;;;;;;5073566;28;20116;-79
2023/05/03 10:42:55;;;;;;;10.68;6.72;;;12.60;77.60;;;;;;5071801;28;20031;-79
2023/05/03 10:45:27;;;;;;;10.98;7.20;;;12.50;77.60;;;;;;5069617;28;20028;-80
2023/05/03 10:48:15;;;;;;;12.10;7.82;;;12.60;78.00;;;;;;5070464;28;20059;-79
2023/05/03 10:50:41;;;;;;;10.38;6.53;;;12.70;78.30;;;;;;5071566;28;20035;-79
2023/05/03 10:53:08;;;;;;;13.27;6.80;;;12.60;75.60;;;;;;5069094;28;20012;-79
2023/05/03 10:55:34;;;;;;;9.60;6.43;;;12.50;76.90;;;;;;5070980;28;20142;-78
2023/05/03 10:58:02;;;;;;;10.82;7.15;;;12.60;78.00;;;;;;5070496;28;20017;-79
2023/05/03 11:00:40;;;;;;;10.02;6.38;;;12.80;77.30;;;;;;5067458;28;20030;-79
2023/05/03 11:03:17;;;;;;;11.15;7.40;;;12.70;77.30;;;;;;5067909;28;20066;-79
2023/05/03 11:05:43;;;;;;;13.38;6.43;;;12.50;77.70;;;;;;5067758;28;20020;-80
2023/05/03 11:08:10;;;;;;;11.45;6.80;;;12.60;78.80;;;;;;5069588;28;20380;-80
2023/05/03 11:10:36;;;;;;;11.05;8.73;;;12.50;79.20;;;;;;5068889;28;20017;-79
2023/05/03 11:13:01;;;;;;;9.15;7.55;;;12.50;78.80;;;;;;5070826;28;20370;-79
2023/05/03 11:15:27;;;;;;;10.20;6.97;;;12.60;77.20;;;;;;5071868;28;20051;-79
2023/05/03 11:17:53;;;;;;;14.70;7.82;;;12.60;76.60;;;;;;5073902;28;20466;-79
2023/05/03 11:20:18;;;;;;;11.57;8.10;;;12.70;77.60;;;;;;5074425;28;20028;-79
2023/05/03 11:22:45;;;;;;;14.07;11.38;;;12.50;75.20;;;;;;5073859;28;20018;-79
2023/05/03 11:25:11;;;;;;;17.65;11.98;;;12.50;76.50;;;;;;5073008;28;20028;-79
2023/05/03 11:27:40;;;;;;;12.80;8.77;;;12.60;76.60;;;;;;5072484;28;20386;-79
2023/05/03 11:30:07;;;;;;;8.85;6.38;;;12.60;76.50;;;;;;5072796;28;20157;-80
2023/05/03 11:32:33;;;;;;;15.07;8.65;;;12.40;76.60;;;;;;5072439;28;20020;-79
2023/05/03 11:35:02;;;;;;;12.68;9.00;;;12.50;77.20;;;;;;5072668;28;20486;-79
2023/05/03 11:37:27;;;;;;;16.42;10.95;;;12.30;79.80;;;;;;5073719;28;20017;-80
2023/05/03 11:39:53;;;;;;;17.17;10.57;;;12.00;85.60;;;;;;5074015;28;20024;-79
2023/05/03 11:42:19;;;;;;;15.77;10.73;;;12.00;86.00;;;;;;5072467;28;20024;-79
2023/05/03 11:44:45;;;;;;;15.30;11.57;;;11.90;88.50;;;;;;5073541;28;20036;-79
2023/05/03 11:47:10;;;;;;;20.23;12.27;;;11.80;89.90;;;;;;5073875;28;20108;-79
2023/05/03 11:49:36;;;;;;;18.90;12.63;;;11.90;92.20;;;;;;5073558;28;20542;-79
2023/05/03 11:52:02;;;;;;;19.73;13.07;;;11.70;92.60;;;;;;5072323;28;20021;-80
2023/05/03 11:54:28;;;;;;;17.88;12.10;;;11.60;93.00;;;;;;5072544;28;20048;-80
2023/05/03 11:56:59;;;;;;;23.90;15.65;;;11.70;93.90;;;;;;5073555;28;20082;-79
2023/05/03 11:59:39;;;;;;;19.40;13.95;;;11.50;90.50;;;;;;5072049;28;20020;-80
2023/05/03 12:02:10;;;;;;;16.55;13.27;;;11.50;93.60;;;;;;5073949;28;20048;-79
2023/05/03 12:04:40;;;;;;;14.32;12.05;;;11.50;93.20;;;;;;5072092;28;20034;-80
2023/05/03 12:07:06;;;;;;;24.63;16.63;;;11.70;93.20;;;;;;5073403;28;20048;-80
2023/05/03 12:09:33;;;;;;;16.70;10.98;;;11.60;91.50;;;;;;5073209;28;20075;-79
2023/05/03 12:11:59;;;;;;;19.10;11.43;;;11.60;88.80;;;;;;5073402;28;20466;-79
2023/05/03 12:14:25;;;;;;;15.63;11.48;;;11.60;87.80;;;;;;5073216;28;20493;-80
2023/05/03 12:16:53;;;;;;;19.90;11.23;;;11.50;88.30;;;;;;5073358;28;20029;-80
2023/05/03 12:19:29;;;;;;;19.88;11.70;;;11.60;88.20;;;;;;5071819;28;20566;-79
2023/05/03 12:21:55;;;;;;;18.35;11.57;;;11.70;87.90;;;;;;5073041;28;20616;-79
2023/05/03 12:24:22;;;;;;;23.48;11.73;;;11.80;88.20;;;;;;5073044;28;20069;-79
2023/05/03 12:26:51;;;;;;;15.93;11.85;;;11.90;87.70;;;;;;5073334;28;20021;-79
2023/05/03 12:29:18;;;;;;;14.63;10.60;;;11.90;86.60;;;;;;5072933;28;20032;-80
2023/05/03 12:31:44;;;;;;;16.15;11.50;;;11.90;83.20;;;;;;5073210;28;20028;-79
2023/05/03 12:34:10;;;;;;;13.27;9.73;;;11.90;85.70;;;;;;5072908;28;20050;-79
2023/05/03 12:36:36;;;;;;;16.05;9.63;;;11.90;85.80;;;;;;5073549;28;20021;-79